Time;durP1;ratioP1;P1;durP2;ratioP2;P2;SDS_P1;SDS_P2;PMS_P1;PMS_P2;Temp;Humidity;BMP_temperature;BMP_pressure;BME280_temperature;BME280_humidity;BME280_pressure;Samples;Min_cycle;Max_cycle;Signal;HPM_P1;HPM_P2
2023/07/05 00:01:28;;;;;;;5.67;3.17;;;;;;;15.51;96.17;100369.13;5094184;28;20016;-85
2023/07/05 00:03:53;;;;;;;3.87;2.80;;;;;;;15.54;97.47;100369.84;5094338;28;20107;-86
2023/07/05 00:06:24;;;;;;;4.27;2.90;;;;;;;15.58;98.54;100352.28;5093122;28;20031;-85
2023/07/05 00:08:58;;;;;;;4.90;3.10;;;;;;;15.44;100.00;100327.56;5094384;28;20026;-86
2023/07/05 00:11:36;;;;;;;4.82;2.80;;;;;;;15.47;98.75;100320.53;5093315;28;20035;-86
2023/07/05 00:14:01;;;;;;;3.30;2.78;;;;;;;15.53;97.51;100317.63;5093909;28;20491;-85
2023/07/05 00:16:27;;;;;;;6.97;3.10;;;;;;;15.50;99.53;100313.38;5093465;28;20020;-86
2023/07/05 00:18:56;;;;;;;5.93;3.00;;;;;;;15.41;98.91;100306.78;5093127;28;20396;-84
2023/07/05 00:21:30;;;;;;;3.63;2.75;;;;;;;15.48;100.00;100309.16;5093896;28;20052;-85
2023/07/05 00:23:58;;;;;;;3.00;2.58;;;;;;;15.42;98.34;100281.50;5093924;28;20046;-85
2023/07/05 00:26:50;;;;;;;4.40;2.72;;;;;;;15.50;100.00;100271.53;5092863;28;20024;-87
2023/07/05 00:29:16;;;;;;;4.60;2.78;;;;;;;15.45;100.00;100265.66;5090796;28;20035;-86
2023/07/05 00:31:56;;;;;;;4.30;2.63;;;;;;;15.43;100.00;100257.88;5093720;28;20032;-86
2023/07/05 00:34:30;;;;;;;3.22;2.40;;;;;;;15.34;100.00;100240.00;5092665;28;20055;-86
2023/07/05 00:36:56;;;;;;;3.50;2.60;;;;;;;15.31;100.00;100234.06;5093526;28;20071;-86
2023/07/05 00:39:21;;;;;;;3.60;2.53;;;;;;;15.35;99.50;100222.53;5093001;28;20028;-85
2023/07/05 00:41:46;;;;;;;2.60;2.13;;;;;;;15.41;99.91;100219.66;5093361;28;20084;-85
2023/07/05 00:44:13;;;;;;;4.00;2.57;;;;;;;15.36;96.95;100188.50;5093169;28;20036;-86
2023/07/05 00:46:45;;;;;;;4.78;2.78;;;;;;;15.36;98.26;100192.88;5092982;28;20013;-86
2023/07/05 00:49:14;;;;;;;3.92;2.70;;;;;;;15.33;97.61;100208.69;5093513;28;20020;-86
2023/07/05 00:51:51;;;;;;;3.80;2.78;;;;;;;15.37;100.00;100231.16;5093158;28;20028;-86
2023/07/05 00:54:39;;;;;;;3.20;2.40;;;;;;;15.35;100.00;100225.16;5092262;28;20028;-85
2023/07/05 00:57:36;;;;;;;3.97;2.40;;;;;;;15.38;99.68;100219.78;5092439;28;20036;-86
2023/07/05 01:00:09;;;;;;;4.65;2.55;;;;;;;15.24;98.61;100207.34;5080962;28;20545;-85
2023/07/05 01:02:40;;;;;;;3.72;2.65;;;;;;;15.34;100.00;100210.38;5092118;28;20024;-86
2023/07/05 01:05:08;;;;;;;4.65;2.80;;;;;;;15.35;99.09;100199.88;5092891;28;20030;-86
2023/07/05 01:07:33;;;;;;;3.08;2.30;;;;;;;15.27;100.00;100189.75;5091089;28;20488;-86
2023/07/05 01:09:59;;;;;;;4.87;2.60;;;;;;;15.27;100.00;100199.34;5093145;28;20034;-85
2023/07/05 01:12:43;;;;;;;3.35;2.50;;;;;;;15.32;100.00;100188.69;5092978;28;20880;-87
2023/07/05 01:15:27;;;;;;;5.70;2.65;;;;;;;15.33;100.00;100188.63;5092072;28;20392;-84
2023/07/05 01:18:08;;;;;;;2.92;2.30;;;;;;;15.33;100.00;100193.84;5093034;28;20067;-84
2023/07/05 01:20:51;;;;;;;4.75;2.60;;;;;;;15.36;100.00;100200.72;5092891;28;20076;-85
2023/07/05 01:23:29;;;;;;;3.90;2.50;;;;;;;15.27;100.00;100176.69;5091889;28;20032;-84
2023/07/05 01:26:16;;;;;;;4.80;2.88;;;;;;;15.31;100.00;100187.84;5092757;28;20434;-86
2023/07/05 01:29:07;;;;;;;3.88;2.90;;;;;;;15.26;100.00;100177.59;5091983;28;20021;-85
2023/07/05 01:31:50;;;;;;;4.35;2.80;;;;;;;15.32;100.00;100186.94;5092863;28;20484;-85
2023/07/05 01:34:37;;;;;;;5.18;3.10;;;;;;;15.28;100.00;100174.91;5092492;28;20032;-85
2023/07/05 01:37:07;;;;;;;3.22;2.63;;;;;;;15.27;100.00;100176.69;5092143;28;20020;-84
2023/07/05 01:39:38;;;;;;;3.65;2.70;;;;;;;15.31;100.00;100181.78;5093069;28;20032;-85
2023/07/05 01:42:05;;;;;;;4.35;2.67;;;;;;;15.28;100.00;100180.13;5093050;28;20020;-84
2023/07/05 01:44:31;;;;;;;4.72;2.70;;;;;;;15.19;100.00;100183.19;5091910;28;20016;-85
2023/07/05 01:47:16;;;;;;;4.10;2.50;;;;;;;15.26;100.00;100198.50;5092714;28;20423;-85
2023/07/05 01:49:44;;;;;;;3.05;2.30;;;;;;;15.28;100.00;100201.91;5092394;28;20346;-84
2023/07/05 01:52:38;;;;;;;2.90;2.25;;;;;;;15.24;100.00;100202.97;5092629;28;20030;-85
2023/07/05 01:55:15;;;;;;;3.30;2.33;;;;;;;15.27;100.00;100202.84;5092530;28;20044;-84
2023/07/05 01:57:54;;;;;;;2.85;2.10;;;;;;;15.24;100.00;100199.50;5092226;28;20031;-84
2023/07/05 02:00:27;;;;;;;4.53;2.58;;;;;;;15.30;100.00;100214.91;5092743;28;20475;-85
2023/07/05 02:03:12;;;;;;;2.35;2.10;;;;;;;15.20;100.00;100208.41;5093060;28;20028;-84
2023/07/05 02:05:47;;;;;;;3.60;2.20;;;;;;;15.27;100.00;100236.81;5092143;28;20027;-84
2023/07/05 02:08:13;;;;;;;2.83;2.05;;;;;;;15.24;100.00;100236.94;5092737;28;20028;-83
2023/07/05 02:10:38;;;;;;;3.58;2.30;;;;;;;15.21;100.00;100251.91;5086749;28;20495;-84
2023/07/05 02:13:08;;;;;;;3.43;2.37;;;;;;;15.18;100.00;100259.88;5092033;28;20063;-85
2023/07/05 02:18:26;;;;;;;2.85;2.20;;;;;;;15.01;100.00;100266.72;5095375;28;20478;-86
2023/07/05 02:20:51;;;;;;;;;;;;;;;14.92;100.00;100273.16;5097413;28;20043;-85
2023/07/05 02:23:16;;;;;;;3.03;2.50;;;;;;;14.72;100.00;100276.63;5096127;28;19912;-85
2023/07/05 02:25:43;;;;;;;3.07;2.10;;;;;;;14.64;99.77;100276.91;5095615;28;20088;-84
2023/07/05 02:28:34;;;;;;;2.50;2.10;;;;;;;14.63;99.32;100297.88;5096232;28;20102;-85
2023/07/05 02:31:06;;;;;;;2.80;2.10;;;;;;;14.44;99.04;100284.69;5096302;28;20028;-85
2023/07/05 02:33:34;;;;;;;2.67;2.10;;;;;;;14.43;99.03;100312.59;5095898;28;20040;-85
2023/07/05 02:36:26;;;;;;;3.42;2.10;;;;;;;14.31;99.21;100298.25;5096244;28;20034;-85
2023/07/05 02:38:55;;;;;;;10.43;2.70;;;;;;;14.11;97.30;100293.81;5095651;28;20413;-84
2023/07/05 02:41:30;;;;;;;4.20;2.50;;;;;;;14.14;97.88;100313.72;5095639;28;20020;-85
2023/07/05 02:43:59;;;;;;;5.07;2.60;;;;;;;14.08;98.83;100321.78;5093942;28;20532;-85
2023/07/05 02:46:39;;;;;;;5.95;3.00;;;;;;;13.93;98.64;100316.25;5095106;28;20028;-86
2023/07/05 02:49:15;;;;;;;5.60;2.60;;;;;;;13.93;98.21;100318.00;5095871;28;20548;-85
2023/07/05 02:51:46;;;;;;;4.47;2.60;;;;;;;13.74;98.68;100288.22;5095779;28;20028;-85
2023/07/05 02:54:13;;;;;;;5.50;2.80;;;;;;;13.68;97.05;100308.50;5069586;28;20109;-85
2023/07/05 02:56:54;;;;;;;3.75;2.50;;;;;;;13.72;97.65;100315.28;5095490;28;20085;-85
2023/07/05 02:59:20;;;;;;;4.55;2.50;;;;;;;13.69;98.04;100316.25;5073702;28;20037;-84
2023/07/05 03:01:45;;;;;;;3.03;2.40;;;;;;;13.65;97.96;100313.81;5074599;28;20035;-85
2023/07/05 03:04:13;;;;;;;7.43;3.00;;;;;;;13.51;97.28;100303.91;5075087;28;20028;-85
2023/07/05 03:06:38;;;;;;;5.20;2.80;;;;;;;13.51;97.96;100317.78;5074215;28;20044;-84
2023/07/05 03:09:04;;;;;;;4.70;2.90;;;;;;;13.43;98.17;100314.59;5094021;28;20030;-84
2023/07/05 03:11:29;;;;;;;5.17;2.73;;;;;;;13.33;98.50;100302.75;5095367;28;20024;-84
2023/07/05 03:14:09;;;;;;;4.50;2.90;;;;;;;13.24;98.51;100304.78;5095444;28;20055;-84
2023/07/05 03:16:47;;;;;;;4.20;2.75;;;;;;;13.13;98.88;100296.47;5077676;28;20024;-84
2023/07/05 03:19:31;;;;;;;4.80;2.78;;;;;;;13.11;98.72;100298.31;5094849;28;20052;-84
2023/07/05 03:22:01;;;;;;;4.95;2.90;;;;;;;13.15;99.21;100315.50;5094937;28;20120;-84
2023/07/05 03:24:27;;;;;;;4.93;2.92;;;;;;;13.10;98.45;100307.84;5083233;28;20090;-86
2023/07/05 03:26:54;;;;;;;7.53;3.10;;;;;;;13.02;98.40;100311.63;5075699;28;20032;-85
2023/07/05 03:29:25;;;;;;;;;;;;;;;13.08;98.63;100311.44;5093267;28;20118;-84
2023/07/05 03:31:53;;;;;;;6.90;3.60;;;;;;;13.07;97.38;100325.34;5095298;28;19912;-85
2023/07/05 03:34:18;;;;;;;5.80;3.10;;;;;;;13.06;98.73;100319.28;5089365;28;20036;-85
2023/07/05 03:36:44;;;;;;;7.15;3.50;;;;;;;13.04;98.67;100313.28;5093287;28;20082;-84
2023/07/05 03:39:14;;;;;;;7.97;3.55;;;;;;;13.03;97.63;100316.81;5094780;28;20028;-85
2023/07/05 03:41:40;;;;;;;7.63;3.63;;;;;;;13.06;98.40;100321.88;5094528;28;20024;-86
2023/07/05 03:44:08;;;;;;;6.10;3.60;;;;;;;13.00;97.33;100309.09;5075639;28;20028;-83
2023/07/05 03:46:34;;;;;;;6.78;3.70;;;;;;;13.04;97.03;100315.91;5095006;28;20059;-84
2023/07/05 03:48:59;;;;;;;8.27;3.90;;;;;;;13.01;97.78;100300.38;5094849;28;20051;-84
2023/07/05 03:51:30;;;;;;;6.50;3.23;;;;;;;13.15;97.32;100323.34;5075024;28;20024;-85
2023/07/05 03:54:06;;;;;;;6.80;3.30;;;;;;;13.09;97.71;100305.31;5092600;28;20043;-85
2023/07/05 03:56:33;;;;;;;7.30;3.60;;;;;;;13.09;97.01;100316.56;5093918;28;20028;-85
2023/07/05 03:58:59;;;;;;;7.18;3.75;;;;;;;13.13;98.26;100318.19;5089117;28;20373;-85
2023/07/05 04:01:26;;;;;;;5.35;3.40;;;;;;;13.09;98.02;100300.94;5094329;28;20112;-85
2023/07/05 04:04:13;;;;;;;8.48;3.70;;;;;;;13.11;98.03;100300.91;5093641;28;20134;-85
2023/07/05 04:06:38;;;;;;;7.05;3.30;;;;;;;13.16;97.21;100298.16;5094608;28;20460;-84
2023/07/05 04:09:06;;;;;;;6.20;3.40;;;;;;;13.13;97.11;100291.25;5094211;28;20054;-85
2023/07/05 04:11:33;;;;;;;7.80;3.47;;;;;;;13.09;97.89;100287.91;5093568;28;20053;-85
2023/07/05 04:13:59;;;;;;;5.93;3.43;;;;;;;13.21;98.21;100309.25;5094866;28;20024;-84
2023/07/05 04:16:30;;;;;;;6.32;3.30;;;;;;;13.22;97.12;100319.63;5089474;28;20043;-85
2023/07/05 04:18:57;;;;;;;8.07;3.80;;;;;;;13.17;97.61;100312.88;5091944;28;20056;-85
2023/07/05 04:21:32;;;;;;;6.13;3.53;;;;;;;13.24;96.86;100314.34;5093301;28;20040;-85
2023/07/05 04:24:17;;;;;;;6.15;3.30;;;;;;;13.13;97.42;100293.88;5094220;28;20028;-84
2023/07/05 04:26:53;;;;;;;8.18;3.92;;;;;;;13.18;96.36;100304.13;5075395;28;20063;-84
2023/07/05 04:29:23;;;;;;;5.22;3.28;;;;;;;13.28;97.23;100311.59;5073654;28;20484;-83
2023/07/05 04:31:50;;;;;;;6.47;3.35;;;;;;;13.32;97.18;100325.34;5072101;28;20042;-85
2023/07/05 04:34:17;;;;;;;6.75;3.58;;;;;;;13.35;97.35;100321.78;5073662;28;20067;-85
2023/07/05 04:36:42;;;;;;;8.77;4.00;;;;;;;13.38;96.91;100312.13;5073587;28;20028;-84
2023/07/05 04:39:08;;;;;;;7.33;3.63;;;;;;;13.39;96.48;100318.16;5053798;28;20086;-84
2023/07/05 04:41:33;;;;;;;7.33;3.80;;;;;;;13.39;96.18;100326.00;5073233;28;20076;-84
2023/07/05 04:43:58;;;;;;;7.33;3.97;;;;;;;13.28;93.53;100308.16;5073496;28;20025;-83
2023/07/05 04:46:24;;;;;;;10.60;3.80;;;;;;;13.34;95.02;100322.72;5086914;28;20055;-83
2023/07/05 04:48:49;;;;;;;9.50;4.00;;;;;;;13.39;95.66;100321.69;5093504;28;20016;-84
2023/07/05 04:51:23;;;;;;;6.63;3.60;;;;;;;13.36;94.67;100313.94;5092869;28;20488;-84
2023/07/05 04:53:48;;;;;;;7.10;3.50;;;;;;;13.38;94.72;100299.09;5093249;28;20016;-84
2023/07/05 04:56:15;;;;;;;9.53;3.80;;;;;;;13.43;94.05;100317.19;5093259;28;20105;-87
2023/07/05 04:58:41;;;;;;;8.02;3.90;;;;;;;13.41;93.99;100325.06;5094250;28;20038;-85
2023/07/05 05:01:07;;;;;;;7.83;3.83;;;;;;;13.31;94.26;100305.41;5092926;28;20020;-83
2023/07/05 05:03:33;;;;;;;;;;;;;;;13.44;92.89;100324.13;5093762;28;20476;-85
2023/07/05 05:05:58;;;;;;;9.13;3.97;;;;;;;13.40;92.97;100312.94;5093009;28;19999;-84
2023/07/05 05:08:27;;;;;;;9.73;4.00;;;;;;;13.49;93.11;100324.78;5092138;28;20057;-84
2023/07/05 05:10:58;;;;;;;8.88;3.88;;;;;;;13.43;93.09;100327.63;5092941;28;20107;-83
2023/07/05 05:13:24;;;;;;;6.38;3.40;;;;;;;13.55;93.97;100323.72;5092930;28;20035;-83
2023/07/05 05:15:50;;;;;;;8.40;4.03;;;;;;;13.67;91.85;100338.09;5092311;28;20024;-84
2023/07/05 05:18:16;;;;;;;7.70;3.85;;;;;;;13.64;91.25;100338.19;5092574;28;20373;-86
2023/07/05 05:20:42;;;;;;;6.93;3.97;;;;;;;13.58;89.87;100321.84;5092249;28;20472;-82
2023/07/05 05:23:17;;;;;;;7.73;3.70;;;;;;;13.48;91.29;100319.63;5092597;28;20031;-82
2023/07/05 05:26:04;;;;;;;6.32;3.40;;;;;;;13.45;91.90;100318.00;5093270;28;20020;-84
2023/07/05 05:28:36;;;;;;;6.75;3.63;;;;;;;13.68;90.53;100342.41;5076356;28;20032;-83
2023/07/05 05:31:40;;;;;;;6.65;3.70;;;;;;;13.65;90.81;100338.13;5092645;28;20032;-84
2023/07/05 05:34:15;;;;;;;9.02;3.60;;;;;;;13.55;90.29;100313.28;5085428;28;20043;-83
2023/07/05 05:36:40;;;;;;;8.13;3.75;;;;;;;13.55;89.54;100318.50;5092234;28;20050;-84
2023/07/05 05:39:07;;;;;;;7.57;3.33;;;;;;;13.64;89.13;100339.03;5092086;28;20028;-84
2023/07/05 05:41:32;;;;;;;8.57;3.60;;;;;;;13.57;88.92;100337.56;5091778;28;20119;-84
2023/07/05 05:43:58;;;;;;;6.87;3.37;;;;;;;13.53;90.05;100334.22;5091779;28;20379;-84
2023/07/05 05:46:23;;;;;;;5.70;3.47;;;;;;;13.50;90.10;100336.09;5092282;28;20034;-84
2023/07/05 05:48:50;;;;;;;9.53;3.30;;;;;;;13.47;90.06;100339.63;5092251;28;20416;-84
2023/07/05 05:51:15;;;;;;;5.70;3.25;;;;;;;13.40;90.18;100322.50;5096494;28;20028;-85
2023/07/05 05:53:41;;;;;;;8.37;3.50;;;;;;;13.50;89.85;100336.91;5096593;28;20529;-85
2023/07/05 05:56:09;;;;;;;7.13;3.40;;;;;;;13.53;89.57;100346.38;5095601;28;20047;-84
2023/07/05 05:58:35;;;;;;;7.18;3.53;;;;;;;13.54;89.11;100348.94;5096470;28;20388;-86
2023/07/05 06:01:05;;;;;;;9.18;3.45;;;;;;;13.43;89.25;100345.88;5096507;28;20024;-85
2023/07/05 06:03:30;;;;;;;6.55;3.30;;;;;;;13.44;89.97;100361.44;5096111;28;20020;-86
2023/07/05 06:05:56;;;;;;;10.20;3.53;;;;;;;13.47;89.81;100367.47;5096317;28;20467;-86
2023/07/05 06:08:32;;;;;;;6.40;3.30;;;;;;;13.37;90.25;100369.50;5095948;28;20105;-86
2023/07/05 06:11:12;;;;;;;5.70;3.13;;;;;;;13.49;89.25;100386.50;5095775;28;20028;-86
2023/07/05 06:13:37;;;;;;;6.40;3.03;;;;;;;13.49;89.48;100373.47;5096906;28;20146;-86
2023/07/05 06:16:12;;;;;;;6.07;3.23;;;;;;;13.38;90.32;100359.03;5096517;28;20119;-86
2023/07/05 06:18:38;;;;;;;7.10;3.33;;;;;;;13.51;88.84;100408.19;5096070;28;20050;-86
2023/07/05 06:21:11;;;;;;;5.25;3.20;;;;;;;13.35;90.67;100371.28;5096945;28;20045;-87
2023/07/05 06:23:37;;;;;;;6.38;3.33;;;;;;;13.39;91.57;100391.16;5096534;28;20028;-88
2023/07/05 06:26:03;;;;;;;5.70;3.03;;;;;;;13.41;92.38;100397.19;5095602;28;20016;-85
2023/07/05 06:28:29;;;;;;;;;;;;;;;13.37;93.75;100399.03;5095764;28;20027;-82
2023/07/05 06:30:54;;;;;;;6.33;3.13;;;;;;;13.44;94.01;100392.72;5096444;28;19916;-85
2023/07/05 06:33:27;;;;;;;5.53;3.07;;;;;;;13.68;92.30;100403.22;5094799;28;20528;-85
2023/07/05 06:35:53;;;;;;;6.03;2.85;;;;;;;13.79;90.84;100381.94;5095950;28;20058;-85
2023/07/05 06:38:18;;;;;;;5.87;2.90;;;;;;;13.89;88.90;100393.78;5095031;28;20027;-87
2023/07/05 06:40:50;;;;;;;6.37;3.00;;;;;;;13.90;87.77;100387.63;5096665;28;20027;-86
2023/07/05 06:43:15;;;;;;;5.15;2.90;;;;;;;13.97;88.64;100413.50;5095762;28;20020;-86
2023/07/05 06:45:41;;;;;;;5.37;2.87;;;;;;;14.02;87.20;100417.66;5094775;28;20069;-83
2023/07/05 06:48:06;;;;;;;5.27;2.90;;;;;;;14.07;87.45;100424.47;5095320;28;20020;-85
2023/07/05 06:50:31;;;;;;;5.53;2.73;;;;;;;14.30;88.25;100416.59;5095679;28;20056;-84
2023/07/05 06:52:59;;;;;;;7.10;3.00;;;;;;;14.62;83.79;100430.22;5095000;28;20016;-86
2023/07/05 06:55:25;;;;;;;4.68;2.95;;;;;;;14.61;83.03;100436.34;5094920;28;20020;-85
2023/07/05 06:57:50;;;;;;;6.33;2.83;;;;;;;14.52;82.90;100431.47;5095585;28;20067;-84
2023/07/05 07:00:16;;;;;;;5.83;3.00;;;;;;;14.48;80.62;100451.63;5093738;28;20107;-85
2023/07/05 07:02:41;;;;;;;4.07;2.87;;;;;;;14.50;82.74;100451.56;5094860;28;20028;-84
2023/07/05 07:05:06;;;;;;;7.63;2.93;;;;;;;14.55;82.40;100451.41;5094932;28;20032;-84
2023/07/05 07:07:40;;;;;;;5.83;2.60;;;;;;;14.61;83.08;100458.97;5094491;28;20017;-85
2023/07/05 07:10:06;;;;;;;4.00;2.70;;;;;;;14.81;83.03;100451.25;5094927;28;20028;-85
2023/07/05 07:12:32;;;;;;;3.83;2.80;;;;;;;15.03;80.74;100468.69;5095319;28;20030;-85
2023/07/05 07:14:57;;;;;;;5.70;2.73;;;;;;;15.09;80.81;100475.44;5094201;28;20034;-84
2023/07/05 07:17:22;;;;;;;4.43;2.53;;;;;;;15.08;80.84;100482.44;5094820;28;20016;-84
2023/07/05 07:19:48;;;;;;;4.23;2.67;;;;;;;15.07;81.02;100485.13;5094605;28;20450;-84
2023/07/05 07:22:15;;;;;;;4.97;2.60;;;;;;;15.11;80.30;100491.91;5093367;28;20048;-84
2023/07/05 07:24:40;;;;;;;;;;;;;;;15.18;81.05;100496.00;5095417;28;20028;-86
2023/07/05 07:27:06;;;;;;;4.27;2.80;;;;;;;15.20;81.34;100485.47;5094768;28;20309;-86
2023/07/05 07:29:31;;;;;;;7.20;2.67;;;;;;;15.34;80.36;100488.38;5094291;28;20039;-85
2023/07/05 07:31:56;;;;;;;2.83;2.30;;;;;;;15.37;80.31;100519.63;5094592;28;20028;-84
2023/07/05 07:34:31;;;;;;;2.37;2.17;;;;;;;15.18;81.40;100519.53;5093771;28;20028;-86
2023/07/05 07:37:11;;;;;;;4.20;2.40;;;;;;;15.11;81.71;100531.97;5094643;28;20499;-85
2023/07/05 07:39:52;;;;;;;4.60;2.70;;;;;;;14.81;85.42;100541.84;5094945;28;20089;-86
2023/07/05 07:42:17;;;;;;;3.60;2.40;;;;;;;14.63;85.01;100541.63;5092299;28;20503;-85
2023/07/05 07:44:42;;;;;;;3.60;2.40;;;;;;;14.45;87.32;100530.09;5094398;28;20028;-83
2023/07/05 07:47:10;;;;;;;3.87;2.30;;;;;;;14.42;86.65;100556.28;5094007;28;20028;-86
2023/07/05 07:49:37;;;;;;;4.68;2.70;;;;;;;14.19;87.43;100565.78;5093371;28;20103;-82
2023/07/05 07:52:04;;;;;;;6.50;2.70;;;;;;;13.99;87.48;100571.69;5094411;28;20046;-83
2023/07/05 07:54:31;;;;;;;3.55;2.70;;;;;;;13.76;87.83;100559.44;5093724;28;20146;-80
2023/07/05 07:56:57;;;;;;;4.05;2.67;;;;;;;13.59;89.78;100562.59;5093749;28;20029;-81
2023/07/05 07:59:23;;;;;;;3.85;2.63;;;;;;;13.64;92.29;100565.03;5093748;28;20020;-82
2023/07/05 08:01:49;;;;;;;5.85;2.70;;;;;;;13.65;91.01;100562.38;5094295;28;20024;-81
2023/07/05 08:04:16;;;;;;;6.77;3.00;;;;;;;13.72;93.99;100571.72;5093500;28;20465;-82
2023/07/05 08:06:44;;;;;;;5.82;2.70;;;;;;;13.80;93.45;100573.22;5076031;28;20032;-83
2023/07/05 08:09:22;;;;;;;3.53;2.72;;;;;;;13.80;94.06;100557.56;5093902;28;20039;-84
2023/07/05 08:11:48;;;;;;;6.80;2.90;;;;;;;13.73;93.99;100583.88;5093394;28;20099;-85
2023/07/05 08:14:17;;;;;;;3.10;2.53;;;;;;;13.70;95.41;100562.22;5093809;28;20103;-83
2023/07/05 08:16:44;;;;;;;5.22;2.63;;;;;;;13.78;95.34;100560.22;5093097;28;20107;-83
2023/07/05 08:19:11;;;;;;;5.55;2.95;;;;;;;13.92;94.71;100577.16;5093475;28;20479;-82
2023/07/05 08:21:36;;;;;;;4.37;3.00;;;;;;;13.94;93.97;100578.84;5094160;28;20064;-82
2023/07/05 08:24:02;;;;;;;5.07;2.70;;;;;;;14.04;95.45;100584.56;5093847;28;20030;-83
2023/07/05 08:26:28;;;;;;;4.53;2.70;;;;;;;14.01;93.26;100598.59;5093689;28;20085;-83
2023/07/05 08:28:53;;;;;;;5.07;2.90;;;;;;;14.10;95.49;100576.56;5093930;28;20024;-82
2023/07/05 08:31:19;;;;;;;4.67;2.90;;;;;;;14.42;96.52;100589.38;5093114;28;20095;-82
2023/07/05 08:33:45;;;;;;;7.63;3.23;;;;;;;14.82;95.19;100580.97;5093991;28;20418;-81
2023/07/05 08:36:17;;;;;;;7.47;3.47;;;;;;;15.23;92.90;100590.75;5093312;28;20533;-83
2023/07/05 08:38:50;;;;;;;4.80;3.13;;;;;;;15.40;89.66;100594.50;5092906;28;20020;-82
2023/07/05 08:41:40;;;;;;;6.20;3.55;;;;;;;15.53;88.43;100603.56;5093109;28;20022;-82
2023/07/05 08:44:08;;;;;;;8.18;3.78;;;;;;;15.81;88.37;100607.66;5093109;28;20020;-83
2023/07/05 08:46:37;;;;;;;5.20;3.40;;;;;;;15.99;84.89;100626.16;5092368;28;20035;-83
2023/07/05 08:49:26;;;;;;;4.57;3.30;;;;;;;16.02;83.22;100658.31;5093792;28;20024;-83
2023/07/05 08:51:52;;;;;;;5.85;3.42;;;;;;;16.04;83.53;100619.81;5089603;28;20044;-83
2023/07/05 08:54:18;;;;;;;6.70;3.70;;;;;;;16.14;83.24;100638.63;5075285;28;20031;-83
2023/07/05 08:56:51;;;;;;;6.90;3.80;;;;;;;16.19;82.85;100646.28;5093059;28;20476;-81
2023/07/05 08:59:19;;;;;;;7.25;3.38;;;;;;;16.42;83.64;100666.25;5092128;28;20039;-81
2023/07/05 09:01:45;;;;;;;6.22;3.47;;;;;;;16.49;83.48;100657.22;5093216;28;20031;-81
2023/07/05 09:04:23;;;;;;;6.90;3.20;;;;;;;16.70;81.91;100658.97;5092760;28;20035;-80
2023/07/05 09:07:09;;;;;;;7.65;3.40;;;;;;;16.79;79.21;100664.66;5092145;28;20511;-81
2023/07/05 09:09:47;;;;;;;;;;;;;;;17.01;82.82;100660.25;5093459;28;20111;-81
2023/07/05 09:12:34;;;;;;;6.32;3.55;;;;;;;17.35;78.26;100667.41;5092810;28;20269;-80
2023/07/05 09:15:38;;;;;;;7.00;3.30;;;;;;;17.41;78.29;100680.25;5092114;28;20080;-80
2023/07/05 09:18:48;;;;;;;3.75;2.70;;;;;;;17.27;77.69;100677.41;5091773;28;20048;-79
2023/07/05 09:21:37;;;;;;;6.38;2.80;;;;;;;17.58;78.19;100687.34;5012848;28;20040;-79
2023/07/05 09:24:20;;;;;;;5.43;3.03;;;;;;;17.86;78.79;100667.63;5092576;28;20380;-80
2023/07/05 09:26:59;;;;;;;6.80;2.85;;;;;;;18.09;75.99;100684.06;5092844;28;20024;-80
2023/07/05 09:30:09;;;;;;;6.38;2.75;;;;;;;18.02;73.88;100673.00;5092247;28;20032;-79
2023/07/05 09:32:38;;;;;;;6.07;3.00;;;;;;;17.93;72.41;100704.09;5047938;28;20032;-81
2023/07/05 09:35:11;;;;;;;4.47;2.78;;;;;;;18.06;71.78;100705.25;5091972;28;20031;-80
2023/07/05 09:37:37;;;;;;;9.07;3.08;;;;;;;18.18;70.86;100723.00;5092478;28;20384;-80
2023/07/05 09:40:05;;;;;;;7.60;3.10;;;;;;;18.32;71.01;100711.81;5092961;28;20044;-81
2023/07/05 09:42:35;;;;;;;6.38;2.90;;;;;;;18.42;70.17;100722.72;5091666;28;20441;-81
2023/07/05 09:45:01;;;;;;;4.80;2.60;;;;;;;18.44;68.34;100727.91;5092430;28;20032;-80
2023/07/05 09:47:26;;;;;;;4.40;2.40;;;;;;;18.61;68.13;100727.06;5092662;28;20099;-80
2023/07/05 09:49:52;;;;;;;6.03;2.47;;;;;;;18.54;65.17;100737.03;5091808;28;20476;-81
2023/07/05 09:52:24;;;;;;;5.27;2.30;;;;;;;18.45;66.65;100748.00;5092375;28;20067;-81
2023/07/05 09:54:59;;;;;;;4.95;2.33;;;;;;;18.37;66.73;100748.38;5092615;28;20464;-82
2023/07/05 09:57:25;;;;;;;4.40;2.20;;;;;;;18.44;67.60;100735.78;5092040;28;20020;-81
2023/07/05 09:59:53;;;;;;;5.30;1.85;;;;;;;18.56;64.94;100747.44;5092765;28;20016;-83
2023/07/05 10:02:24;;;;;;;4.75;2.00;;;;;;;18.62;65.39;100748.00;5091691;28;20358;-80
2023/07/05 10:04:53;;;;;;;2.92;1.73;;;;;;;18.67;66.84;100758.25;5092750;28;20089;-80
2023/07/05 10:07:23;;;;;;;2.05;1.63;;;;;;;18.83;63.07;100759.19;5092516;28;20020;-81
2023/07/05 10:10:14;;;;;;;4.35;2.00;;;;;;;19.08;63.47;100760.56;5091769;28;20032;-81
2023/07/05 10:12:41;;;;;;;4.68;1.80;;;;;;;19.11;63.72;100791.97;5092556;28;20077;-80
2023/07/05 10:15:20;;;;;;;3.22;1.90;;;;;;;19.01;59.18;100777.59;5092132;28;20048;-81
2023/07/05 10:17:46;;;;;;;3.17;1.80;;;;;;;18.86;60.07;100795.00;5091476;28;20028;-80
2023/07/05 10:20:28;;;;;;;5.23;2.10;;;;;;;18.71;60.81;100795.75;5092266;28;20028;-80
2023/07/05 10:23:02;;;;;;;3.78;1.80;;;;;;;18.80;60.49;100790.06;5092446;28;20107;-80
2023/07/05 10:25:38;;;;;;;2.63;1.50;;;;;;;18.84;57.10;100810.00;5091284;28;20059;-79
2023/07/05 10:28:05;;;;;;;5.17;1.73;;;;;;;18.78;58.82;100812.94;5092496;28;20035;-80
2023/07/05 10:30:31;;;;;;;2.90;1.80;;;;;;;18.75;57.23;100806.03;5091478;28;20028;-80
2023/07/05 10:33:16;;;;;;;2.47;1.63;;;;;;;18.83;60.05;100826.69;5092050;28;20031;-80
2023/07/05 10:36:02;;;;;;;1.80;1.58;;;;;;;19.04;59.65;100830.06;5093747;28;20487;-79
2023/07/05 10:38:29;;;;;;;;;;;;;;;19.18;58.71;100837.22;5094616;28;20081;-82
2023/07/05 10:40:59;;;;;;;2.88;1.70;;;;;;;19.19;58.90;100835.47;5095067;28;19962;-81
2023/07/05 10:43:29;;;;;;;3.10;1.60;;;;;;;19.28;57.21;100811.28;5095408;28;20024;-82
2023/07/05 10:45:54;;;;;;;3.10;1.60;;;;;;;19.19;57.40;100832.84;5095136;28;20020;-80
2023/07/05 10:48:43;;;;;;;2.00;1.63;;;;;;;19.27;54.70;100841.16;5095330;28;20039;-80
2023/07/05 10:51:19;;;;;;;3.40;1.80;;;;;;;19.51;56.12;100849.53;5082388;28;20032;-81
2023/07/05 10:53:52;;;;;;;3.88;1.73;;;;;;;19.50;54.08;100839.13;5095704;28;20036;-81
2023/07/05 10:56:22;;;;;;;3.47;1.30;;;;;;;19.38;56.06;100844.09;5095614;28;20024;-81
2023/07/05 10:58:58;;;;;;;2.95;1.40;;;;;;;19.34;54.74;100854.84;5095200;28;20024;-82
2023/07/05 11:01:31;;;;;;;1.77;1.40;;;;;;;19.39;55.30;100852.81;5095401;28;20020;-81
2023/07/05 11:04:16;;;;;;;3.95;1.90;;;;;;;19.62;55.02;100859.53;5094941;28;20278;-80
2023/07/05 11:06:45;;;;;;;1.98;1.70;;;;;;;19.75;54.84;100862.34;5094982;28;20036;-82
2023/07/05 11:09:10;;;;;;;2.67;1.67;;;;;;;19.82;55.19;100847.06;5094750;28;20380;-81
2023/07/05 11:11:44;;;;;;;3.00;1.50;;;;;;;20.25;56.58;100868.44;5095421;28;20016;-81
2023/07/05 11:14:14;;;;;;;4.38;1.63;;;;;;;20.49;49.55;100854.81;5094095;28;20020;-81
2023/07/05 11:16:45;;;;;;;2.92;1.33;;;;;;;20.50;51.25;100860.00;5094981;28;20464;-82
2023/07/05 11:19:20;;;;;;;4.07;1.70;;;;;;;20.82;54.33;100869.66;5094591;28;20051;-81
2023/07/05 11:21:49;;;;;;;3.37;1.60;;;;;;;20.96;51.12;100868.84;5094389;28;20032;-81
2023/07/05 11:24:39;;;;;;;3.38;1.50;;;;;;;20.73;49.74;100880.72;5094726;28;20026;-80
2023/07/05 11:27:23;;;;;;;1.55;1.40;;;;;;;20.50;49.53;100885.50;5094236;28;20028;-79
2023/07/05 11:29:51;;;;;;;2.05;1.60;;;;;;;20.19;49.55;100890.72;5094737;28;20392;-81
2023/07/05 11:32:18;;;;;;;2.97;1.80;;;;;;;19.92;51.26;100882.53;5094462;28;20027;-81
2023/07/05 11:34:45;;;;;;;;;;;;;;;19.94;51.93;100892.97;5094626;28;20052;-81
2023/07/05 11:37:10;;;;;;;4.43;1.80;;;;;;;20.12;54.44;100902.53;5094438;28;20279;-80
2023/07/05 11:39:36;;;;;;;2.40;1.53;;;;;;;20.44;51.75;100899.88;5094853;28;20024;-81
2023/07/05 11:44:49;;;;;;;2.92;1.70;;;;;;;20.80;51.13;100898.78;5094478;28;20111;-80
2023/07/05 11:47:21;;;;;;;3.33;1.60;;;;;;;20.81;49.21;100903.13;5093647;28;20161;-81
2023/07/05 11:49:52;;;;;;;3.97;1.60;;;;;;;20.65;48.20;100903.13;5093952;28;20028;-81
2023/07/05 11:52:29;;;;;;;3.58;1.60;;;;;;;20.65;47.71;100918.06;5094365;28;20380;-81